createdAt,value
2018-09-23T00:01:24.690Z,16.02
2018-09-23T00:03:55.336Z,16.01
2018-09-23T00:06:25.946Z,15.97
2018-09-23T00:08:57.088Z,15.99
2018-09-23T00:11:27.664Z,15.97
2018-09-23T00:13:57.325Z,15.97
2018-09-23T00:16:27.075Z,15.96
2018-09-23T00:18:56.762Z,15.91
2018-09-23T00:21:27.251Z,15.95
2018-09-23T00:23:56.723Z,15.89
2018-09-23T00:26:26.295Z,15.83
2018-09-23T00:28:57.970Z,15.83
2018-09-23T00:31:29.335Z,15.84
2018-09-23T00:34:04.195Z,15.93
2018-09-23T00:36:34.544Z,15.97
2018-09-23T00:39:05.850Z,15.95
2018-09-23T00:41:37.697Z,15.92
2018-09-23T00:44:07.202Z,15.94
2018-09-23T00:46:36.869Z,15.91
2018-09-23T00:49:08.207Z,15.88
2018-09-23T00:51:38.029Z,15.91
2018-09-23T00:54:08.892Z,15.93
2018-09-23T00:56:42.150Z,15.98
2018-09-23T00:59:12.062Z,16.01
2018-09-23T01:01:43.616Z,16.02
2018-09-23T01:04:14.505Z,16.04
2018-09-23T01:06:44.344Z,16.02
2018-09-23T01:09:14.557Z,16.07
2018-09-23T01:11:44.161Z,16.03
2018-09-23T01:14:15.104Z,16.08
2018-09-23T01:16:44.695Z,16.08
2018-09-23T01:19:15.249Z,16.04
2018-09-23T01:21:44.761Z,16.13
2018-09-23T01:24:16.201Z,16.14
2018-09-23T01:26:45.584Z,16.10
2018-09-23T01:29:15.708Z,16.10
2018-09-23T01:31:45.394Z,16.04
2018-09-23T01:34:16.977Z,16.04
2018-09-23T01:36:46.542Z,16.03
2018-09-23T01:39:17.216Z,16.02
2018-09-23T01:41:46.907Z,15.97
2018-09-23T01:44:17.526Z,15.88
2018-09-23T01:46:46.978Z,15.84
2018-09-23T01:49:16.460Z,15.77
2018-09-23T01:51:45.859Z,15.73
2018-09-23T01:54:16.535Z,15.71
2018-09-23T01:56:46.002Z,15.66
2018-09-23T01:59:15.546Z,15.67
2018-09-23T02:01:45.048Z,15.69
2018-09-23T02:04:14.512Z,15.74
2018-09-23T02:06:44.060Z,15.78
2018-09-23T02:09:13.704Z,15.86
2018-09-23T02:11:43.134Z,15.87
2018-09-23T02:14:12.619Z,15.87
2018-09-23T02:16:42.031Z,15.91
2018-09-23T02:19:11.481Z,15.92
2018-09-23T02:21:42.134Z,15.95
2018-09-23T02:24:11.730Z,15.95
2018-09-23T02:26:41.416Z,15.99
2018-09-23T02:29:11.193Z,16.05
2018-09-23T02:31:40.746Z,16.03
2018-09-23T02:34:10.256Z,16.02
2018-09-23T02:36:40.496Z,16.07
2018-09-23T02:39:11.232Z,16.08
2018-09-23T02:41:40.706Z,16.08
2018-09-23T02:44:10.279Z,16.06
2018-09-23T02:46:40.524Z,16.07
2018-09-23T02:49:10.358Z,16.01
2018-09-23T02:51:40.067Z,15.98
2018-09-23T02:54:09.759Z,15.93
2018-09-23T02:56:39.477Z,15.94
2018-09-23T02:59:10.711Z,15.96
2018-09-23T03:01:40.220Z,15.95
2018-09-23T03:04:09.820Z,15.94
2018-09-23T03:06:39.289Z,16.00
2018-09-23T03:09:08.792Z,16.01
2018-09-23T03:11:38.373Z,16.02
2018-09-23T03:14:08.127Z,16.01
2018-09-23T03:16:37.905Z,16.01
2018-09-23T03:19:07.513Z,16.01
2018-09-23T03:21:37.054Z,16.03
2018-09-23T03:24:06.635Z,16.02
2018-09-23T03:26:36.271Z,16.02
2018-09-23T03:29:06.837Z,16.01
2018-09-23T03:31:36.506Z,16.02
2018-09-23T03:34:05.887Z,16.05
2018-09-23T03:36:35.593Z,16.02
2018-09-23T03:39:07.336Z,16.02
2018-09-23T03:41:37.205Z,16.07
2018-09-23T03:44:07.019Z,16.03
2018-09-23T03:46:36.636Z,16.00
2018-09-23T03:49:06.324Z,16.00
2018-09-23T03:51:35.827Z,16.04
2018-09-23T03:54:05.657Z,16.07
2018-09-23T03:56:35.308Z,16.08
2018-09-23T03:59:05.472Z,16.11
2018-09-23T04:01:35.223Z,16.09
2018-09-23T04:04:05.987Z,16.07
2018-09-23T04:06:35.609Z,16.10
2018-09-23T04:09:06.740Z,16.15
2018-09-23T04:11:36.438Z,16.16
2018-09-23T04:14:06.582Z,16.18
2018-09-23T04:16:36.190Z,16.22
2018-09-23T04:19:06.412Z,16.23
2018-09-23T04:21:35.957Z,16.24
2018-09-23T04:24:05.394Z,16.26
2018-09-23T04:26:35.534Z,16.29
2018-09-23T04:29:06.790Z,16.21
2018-09-23T04:31:36.572Z,16.15
2018-09-23T04:34:06.251Z,16.11
2018-09-23T04:36:35.817Z,16.08
2018-09-23T04:39:08.150Z,16.08
2018-09-23T04:41:38.012Z,16.08
2018-09-23T04:44:07.674Z,16.06
2018-09-23T04:46:37.310Z,16.12
2018-09-23T04:49:07.837Z,16.21
2018-09-23T04:51:37.270Z,16.21
2018-09-23T04:54:06.773Z,16.18
2018-09-23T04:56:36.209Z,16.17
2018-09-23T04:59:06.838Z,16.11
2018-09-23T05:01:36.448Z,16.08
2018-09-23T05:04:06.109Z,16.08
2018-09-23T05:06:35.609Z,16.08
2018-09-23T05:09:06.549Z,16.06
2018-09-23T05:11:35.941Z,16.04
2018-09-23T05:14:05.464Z,16.08
2018-09-23T05:16:35.425Z,16.08
2018-09-23T05:19:04.963Z,16.12
2018-09-23T05:21:34.513Z,16.17
2018-09-23T05:24:04.146Z,16.18
2018-09-23T05:26:40.178Z,16.17
2018-09-23T05:29:09.668Z,16.16
2018-09-23T05:31:39.338Z,16.18
2018-09-23T05:34:09.042Z,16.24
2018-09-23T05:36:39.122Z,16.32
2018-09-23T05:39:10.569Z,16.34
2018-09-23T05:41:40.448Z,16.27
2018-09-23T05:44:10.500Z,16.30
2018-09-23T05:46:40.303Z,16.31
2018-09-23T05:49:10.699Z,16.28
2018-09-23T05:51:40.316Z,16.26
2018-09-23T05:54:10.118Z,16.28
2018-09-23T05:56:41.195Z,16.29
2018-09-23T05:59:10.971Z,16.29
2018-09-23T06:01:40.582Z,16.31
2018-09-23T06:04:11.187Z,16.28
2018-09-23T06:06:41.883Z,16.29
2018-09-23T06:09:12.513Z,16.26
2018-09-23T06:11:42.327Z,16.16
2018-09-23T06:14:11.900Z,16.17
2018-09-23T06:16:42.525Z,16.14
2018-09-23T06:19:12.192Z,16.07
2018-09-23T06:21:48.219Z,16.01
2018-09-23T06:24:20.059Z,16.03
2018-09-23T06:26:55.438Z,16.09
2018-09-23T06:29:28.657Z,16.15
2018-09-23T06:31:59.590Z,16.27
2018-09-23T06:34:36.296Z,16.33
2018-09-23T06:37:06.234Z,16.31
2018-09-23T06:39:36.021Z,16.34
2018-09-23T06:42:05.676Z,16.29
2018-09-23T06:44:36.059Z,16.21
2018-09-23T06:47:06.379Z,16.15
2018-09-23T06:49:39.293Z,16.11
2018-09-23T06:52:13.451Z,16.16
2018-09-23T06:54:49.081Z,16.22
2018-09-23T06:57:23.466Z,16.21
2018-09-23T07:00:04.226Z,16.25
2018-09-23T07:02:33.965Z,16.30
2018-09-23T07:05:05.729Z,16.29
2018-09-23T07:07:38.570Z,16.24
2018-09-23T07:10:08.206Z,16.22
2018-09-23T07:12:39.482Z,16.14
2018-09-23T07:15:15.426Z,16.05
2018-09-23T07:17:45.018Z,15.80
2018-09-23T07:20:14.597Z,15.74
2018-09-23T07:22:45.172Z,15.86
2018-09-23T07:25:21.328Z,16.07
2018-09-23T07:27:51.755Z,16.28
2018-09-23T07:30:21.367Z,16.43
2018-09-23T07:32:50.868Z,16.55
2018-09-23T07:35:20.358Z,16.48
2018-09-23T07:37:50.522Z,16.44
2018-09-23T07:40:21.139Z,16.44
2018-09-23T07:42:54.282Z,16.46
2018-09-23T07:45:27.587Z,16.54
2018-09-23T07:47:57.021Z,16.48
2018-09-23T07:50:26.986Z,16.45
2018-09-23T07:52:56.852Z,16.48
2018-09-23T07:55:28.452Z,16.55
2018-09-23T07:57:59.145Z,16.55
2018-09-23T08:00:28.889Z,16.56
2018-09-23T08:02:58.881Z,16.49
2018-09-23T08:05:28.430Z,16.48
2018-09-23T08:07:59.110Z,16.54
2018-09-23T08:10:28.685Z,16.46
2018-09-23T08:13:00.825Z,16.48
2018-09-23T08:15:32.437Z,16.44
2018-09-23T08:18:06.539Z,16.36
2018-09-23T08:20:37.059Z,16.48
2018-09-23T08:23:06.779Z,16.57
2018-09-23T08:25:36.345Z,16.64
2018-09-23T08:28:06.568Z,16.79
2018-09-23T08:30:38.527Z,16.84
2018-09-23T08:33:13.499Z,16.85
2018-09-23T08:35:43.812Z,16.94
2018-09-23T08:38:16.710Z,17.12
2018-09-23T08:40:52.324Z,17.24
2018-09-23T08:43:34.845Z,17.29
2018-09-23T08:46:06.916Z,17.35
2018-09-23T08:48:36.705Z,17.29
2018-09-23T08:51:09.163Z,17.22
2018-09-23T08:53:39.014Z,17.20
2018-09-23T08:56:09.531Z,17.19
2018-09-23T08:58:50.085Z,17.10
2018-09-23T09:01:26.476Z,17.15
2018-09-23T09:03:56.039Z,17.25
2018-09-23T09:06:25.785Z,17.33
2018-09-23T09:08:55.242Z,17.57
2018-09-23T09:11:24.783Z,17.70
2018-09-23T09:13:54.425Z,17.71
2018-09-23T09:16:31.211Z,17.89
2018-09-23T09:19:00.927Z,17.76
2018-09-23T09:21:37.618Z,17.62
2018-09-23T09:24:07.527Z,17.48
2018-09-23T09:26:37.112Z,17.37
2018-09-23T09:29:15.517Z,17.30
2018-09-23T09:31:46.985Z,17.23
2018-09-23T09:34:16.965Z,17.44
2018-09-23T09:36:47.041Z,17.44
2018-09-23T09:39:16.980Z,17.57
2018-09-23T09:41:47.511Z,17.63
2018-09-23T09:44:17.053Z,17.79
2018-09-23T09:46:46.533Z,18.02
2018-09-23T09:49:18.893Z,18.17
2018-09-23T09:51:48.436Z,18.10
2018-09-23T09:54:18.016Z,18.05
2018-09-23T09:56:47.477Z,17.97
2018-09-23T09:59:18.113Z,17.91
2018-09-23T10:01:47.744Z,17.94
2018-09-23T10:04:17.238Z,17.87
2018-09-23T10:06:46.748Z,17.73
2018-09-23T10:09:16.167Z,17.77
2018-09-23T10:11:46.311Z,17.78
2018-09-23T10:14:16.330Z,17.78
2018-09-23T10:16:47.472Z,17.94
2018-09-23T10:19:18.372Z,18.06
2018-09-23T10:21:48.120Z,18.07
2018-09-23T10:24:17.870Z,17.94
2018-09-23T10:26:47.503Z,17.89
2018-09-23T10:29:17.884Z,17.77
2018-09-23T10:31:47.701Z,17.75
2018-09-23T10:34:17.115Z,17.69
2018-09-23T10:36:47.611Z,17.54
2018-09-23T10:39:18.318Z,17.54
2018-09-23T10:41:48.659Z,17.58
2018-09-23T10:44:19.008Z,17.62
2018-09-23T10:46:48.601Z,17.66
2018-09-23T10:49:19.531Z,17.65
2018-09-23T10:51:49.615Z,17.52
2018-09-23T10:54:19.204Z,17.42
2018-09-23T10:56:48.783Z,17.39
2018-09-23T10:59:18.182Z,17.31
2018-09-23T11:01:47.717Z,17.42
2018-09-23T11:04:17.017Z,17.51
2018-09-23T11:06:46.468Z,17.54
2018-09-23T11:09:16.046Z,17.41
2018-09-23T11:11:45.697Z,17.32
2018-09-23T11:14:15.234Z,17.44
2018-09-23T11:16:45.437Z,17.53
2018-09-23T11:19:14.984Z,17.64
2018-09-23T11:21:44.787Z,17.69
2018-09-23T11:24:14.282Z,17.79
2018-09-23T11:26:43.712Z,17.76
2018-09-23T11:29:13.250Z,17.70
2018-09-23T11:31:43.506Z,17.62
2018-09-23T11:34:13.630Z,17.68
2018-09-23T11:36:43.161Z,17.66
2018-09-23T11:39:13.813Z,17.66
2018-09-23T11:41:43.683Z,17.45
2018-09-23T11:44:13.419Z,17.40
2018-09-23T11:46:43.196Z,17.40
2018-09-23T11:49:12.773Z,17.52
2018-09-23T11:51:42.925Z,17.72
2018-09-23T11:54:12.380Z,17.82
2018-09-23T11:56:41.940Z,17.90
2018-09-23T11:59:11.615Z,17.90
2018-09-23T12:01:41.640Z,17.84
2018-09-23T12:04:11.353Z,17.71
2018-09-23T12:06:41.184Z,17.58
2018-09-23T12:09:13.192Z,17.56
2018-09-23T12:11:42.953Z,17.43
2018-09-23T12:14:12.705Z,17.36
2018-09-23T12:16:42.616Z,17.38
2018-09-23T12:19:15.054Z,17.33
2018-09-23T12:21:44.468Z,17.28
2018-09-23T12:24:13.993Z,17.37
2018-09-23T12:26:45.497Z,17.42
2018-09-23T12:29:15.017Z,17.43
2018-09-23T12:31:45.162Z,17.28
2018-09-23T12:34:14.772Z,17.15
2018-09-23T12:36:45.583Z,17.14
2018-09-23T12:39:15.297Z,17.21
2018-09-23T12:41:44.944Z,16.97
2018-09-23T12:44:14.659Z,16.89
2018-09-23T12:46:45.822Z,16.96
2018-09-23T12:49:15.486Z,17.07
2018-09-23T12:51:44.868Z,17.02
2018-09-23T12:54:14.430Z,17.03
2018-09-23T12:56:44.210Z,17.00
2018-09-23T12:59:14.011Z,16.99
2018-09-23T13:01:44.382Z,16.93
2018-09-23T13:04:14.519Z,16.87
2018-09-23T13:06:44.384Z,16.81
2018-09-23T13:09:14.026Z,16.81
2018-09-23T13:11:44.611Z,16.80
2018-09-23T13:14:14.248Z,16.70
2018-09-23T13:16:43.928Z,16.71
2018-09-23T13:19:13.514Z,16.84
2018-09-23T13:21:43.287Z,16.90
2018-09-23T13:24:12.830Z,16.85
2018-09-23T13:26:42.515Z,16.73
2018-09-23T13:29:12.141Z,16.48
2018-09-23T13:31:41.624Z,16.06
2018-09-23T13:34:11.121Z,15.74
2018-09-23T13:36:40.886Z,15.59
2018-09-23T13:39:11.064Z,15.42
2018-09-23T13:41:40.596Z,15.27
2018-09-23T13:44:10.547Z,15.12
2018-09-23T13:46:40.739Z,15.08
2018-09-23T13:49:10.791Z,15.05
2018-09-23T13:51:40.697Z,14.98
2018-09-23T13:54:10.673Z,14.87
2018-09-23T13:56:40.570Z,14.78
2018-09-23T13:59:11.134Z,14.73
2018-09-23T14:01:40.749Z,14.66
2018-09-23T14:04:10.397Z,14.71
2018-09-23T14:06:40.317Z,14.68
2018-09-23T14:09:10.775Z,14.62
2018-09-23T14:11:40.380Z,14.60
2018-09-23T14:14:10.975Z,14.59
2018-09-23T14:16:40.669Z,14.58
2018-09-23T14:19:10.776Z,14.55
2018-09-23T14:21:40.347Z,14.49
2018-09-23T14:24:09.978Z,14.49
2018-09-23T14:26:39.488Z,14.50
2018-09-23T14:29:10.059Z,14.48
2018-09-23T14:31:39.641Z,14.44
2018-09-23T14:34:09.252Z,14.36
2018-09-23T14:36:45.300Z,14.31
2018-09-23T14:39:15.405Z,14.30
2018-09-23T14:41:44.819Z,14.20
2018-09-23T14:44:15.121Z,14.19
2018-09-23T14:46:45.256Z,14.22
2018-09-23T14:49:15.889Z,14.32
2018-09-23T14:51:49.169Z,14.29
2018-09-23T14:54:18.913Z,14.34
2018-09-23T14:56:49.598Z,14.38
2018-09-23T14:59:23.498Z,14.40
2018-09-23T15:01:55.385Z,14.46
2018-09-23T15:04:25.171Z,14.40
2018-09-23T15:06:55.904Z,14.34
2018-09-23T15:09:27.463Z,14.36
2018-09-23T15:11:57.138Z,14.41
2018-09-23T15:14:27.695Z,14.37
2018-09-23T15:17:00.623Z,14.31
2018-09-23T15:19:30.312Z,14.21
2018-09-23T15:22:02.426Z,14.18
2018-09-23T15:24:35.842Z,14.12
2018-09-23T15:27:09.561Z,14.11
2018-09-23T15:32:40.182Z,13.95
2018-09-23T15:35:14.830Z,13.90
2018-09-23T15:37:46.253Z,13.85
2018-09-23T15:40:22.307Z,13.80
2018-09-23T15:42:53.452Z,13.76
2018-09-23T15:45:32.925Z,13.76
2018-09-23T15:48:07.093Z,13.72
2018-09-23T15:50:42.838Z,13.62
2018-09-23T15:53:17.886Z,13.59
2018-09-23T15:55:54.904Z,13.65
2018-09-23T15:58:29.840Z,13.63
2018-09-23T16:01:01.089Z,13.62
2018-09-23T16:03:34.249Z,13.55
2018-09-23T16:06:05.583Z,13.47
2018-09-23T16:08:37.333Z,13.46
2018-09-23T16:11:07.566Z,13.44
2018-09-23T16:13:38.475Z,13.40
2018-09-23T16:16:11.381Z,13.40
2018-09-23T16:18:41.798Z,13.44
2018-09-23T16:21:12.211Z,13.48
2018-09-23T16:23:42.245Z,13.46
2018-09-23T16:26:13.412Z,13.48
2018-09-23T16:28:46.080Z,13.50
2018-09-23T16:31:16.037Z,13.52
2018-09-23T16:33:47.033Z,13.52
2018-09-23T16:36:17.564Z,13.56
2018-09-23T16:38:49.690Z,13.62
2018-09-23T16:41:20.312Z,13.65
2018-09-23T16:43:51.704Z,13.69
2018-09-23T16:46:21.778Z,13.76
2018-09-23T16:48:52.900Z,13.76
2018-09-23T16:51:24.915Z,13.77
2018-09-23T16:53:56.106Z,14.04
2018-09-23T16:56:28.346Z,13.96
2018-09-23T16:58:59.275Z,13.94
2018-09-23T17:01:29.095Z,13.96
2018-09-23T17:04:00.714Z,13.95
2018-09-23T17:06:33.182Z,13.94
2018-09-23T17:09:05.638Z,13.97
2018-09-23T17:11:38.463Z,13.99
2018-09-23T17:14:09.624Z,14.04
2018-09-23T17:16:39.699Z,14.04
2018-09-23T17:19:11.086Z,14.01
2018-09-23T17:25:11.065Z,13.96
2018-09-23T17:27:46.183Z,14.00
2018-09-23T17:30:20.702Z,14.01
2018-09-23T17:33:04.024Z,14.16
2018-09-23T17:35:56.215Z,14.07
2018-09-23T17:44:49.416Z,14.08
2018-09-23T17:47:54.346Z,14.03
2018-09-23T17:50:33.627Z,13.86
2018-09-23T17:53:04.320Z,13.72
2018-09-23T17:55:35.990Z,13.60
2018-09-23T17:58:09.060Z,13.51
2018-09-23T18:01:04.074Z,13.38
2018-09-23T18:03:41.786Z,13.27
2018-09-23T18:06:14.649Z,13.20
2018-09-23T18:08:48.834Z,13.09
2018-09-23T18:11:23.697Z,12.96
2018-09-23T18:13:58.488Z,12.91
2018-09-23T18:16:31.929Z,12.94
2018-09-23T18:19:04.855Z,12.92
2018-09-23T18:21:39.640Z,12.78
2018-09-23T18:24:22.123Z,12.57
2018-09-23T18:26:53.376Z,12.35
2018-09-23T18:29:25.937Z,12.26
2018-09-23T18:32:07.913Z,12.16
2018-09-23T19:47:30.138Z,11.60
2018-09-23T19:50:32.773Z,11.58
2018-09-23T20:14:16.397Z,11.61
2018-09-23T20:16:50.538Z,11.63
2018-09-23T20:19:33.938Z,11.67
2018-09-23T20:22:21.651Z,11.77
2018-09-23T20:24:56.732Z,11.77
2018-09-23T20:27:29.211Z,11.78
2018-09-23T20:29:59.445Z,11.83
2018-09-23T20:32:31.246Z,11.85
2018-09-23T20:35:01.833Z,11.87
2018-09-23T20:37:41.783Z,11.89
2018-09-23T20:40:15.040Z,11.93
2018-09-23T20:42:47.530Z,11.93
2018-09-23T20:45:20.033Z,11.96
2018-09-23T20:47:52.490Z,11.96
2018-09-23T20:50:28.006Z,11.97
2018-09-23T20:53:09.795Z,12.01
2018-09-23T20:56:16.120Z,12.02
2018-09-23T21:01:51.443Z,11.98
2018-09-23T21:04:33.562Z,12.02
2018-09-23T21:07:04.097Z,12.06
2018-09-23T21:09:35.100Z,12.07
2018-09-23T21:12:05.978Z,12.07
2018-09-23T21:14:38.618Z,12.10
2018-09-23T21:17:27.935Z,12.06
2018-09-23T21:20:13.819Z,12.03
2018-09-23T21:22:54.015Z,12.05
2018-09-23T21:25:40.839Z,12.07
2018-09-23T21:28:29.813Z,12.08
2018-09-23T21:31:01.413Z,12.13
2018-09-23T21:33:34.658Z,12.17
2018-09-23T21:36:23.185Z,12.21
2018-09-23T21:42:09.994Z,12.24
2018-09-23T21:44:50.558Z,12.26
2018-09-23T21:50:28.651Z,12.26
2018-09-23T21:56:28.614Z,12.26
2018-09-23T21:59:03.606Z,12.29
2018-09-23T22:02:00.368Z,12.28
2018-09-23T22:04:36.053Z,12.32
2018-09-23T22:07:08.410Z,12.32
2018-09-23T22:09:51.267Z,12.33
2018-09-23T22:12:22.027Z,12.35
2018-09-23T22:14:54.523Z,12.37
2018-09-23T22:17:25.518Z,12.36
2018-09-23T22:20:12.176Z,12.37
2018-09-23T22:22:44.062Z,12.36
2018-09-23T22:25:16.312Z,12.41
2018-09-23T22:27:47.224Z,12.42
2018-09-23T22:30:18.768Z,12.42
2018-09-23T22:32:51.807Z,12.44
2018-09-23T22:35:28.573Z,12.46
2018-09-23T22:38:04.875Z,12.45
2018-09-23T22:41:04.929Z,12.45
2018-09-23T22:43:58.667Z,12.40
2018-09-23T22:46:38.138Z,12.33
2018-09-23T22:49:17.077Z,12.33
2018-09-23T22:52:02.264Z,12.36
2018-09-23T22:54:34.569Z,12.34
2018-09-23T22:57:06.050Z,12.32
2018-09-23T22:59:38.208Z,12.32
2018-09-23T23:02:10.310Z,12.32
2018-09-23T23:04:49.016Z,12.31
2018-09-23T23:07:26.458Z,12.31
2018-09-23T23:09:57.544Z,12.32
2018-09-23T23:12:27.660Z,12.35
2018-09-23T23:14:58.703Z,12.33
2018-09-23T23:17:30.488Z,12.38
2018-09-23T23:20:02.273Z,12.41
2018-09-23T23:22:32.438Z,12.34
2018-09-23T23:25:02.558Z,12.28
2018-09-23T23:27:35.228Z,12.22
2018-09-23T23:30:05.253Z,12.16
2018-09-23T23:32:35.979Z,12.15
2018-09-23T23:35:06.856Z,12.12
2018-09-23T23:37:39.273Z,12.11
2018-09-23T23:40:10.029Z,12.06
2018-09-23T23:42:41.443Z,12.02
2018-09-23T23:45:14.189Z,12.01
2018-09-23T23:47:44.801Z,11.99
2018-09-23T23:50:15.931Z,11.95
2018-09-23T23:52:46.492Z,11.92
2018-09-23T23:55:20.029Z,11.90
2018-09-23T23:57:50.244Z,11.90
